Time;durP1;ratioP1;P1;durP2;ratioP2;P2;SDS_P1;SDS_P2;PMS_P1;PMS_P2;Temp;Humidity;BMP_temperature;BMP_pressure;BME280_temperature;BME280_humidity;BME280_pressure;Samples;Min_cycle;Max_cycle;Signal;HPM_P1;HPM_P2
2022/03/03 00:02:18;;;;;;;10.23;6.47;;;3.00;1.00;;;;;;5055063;28;20471;-53
2022/03/03 00:04:45;;;;;;;8.05;5.40;;;3.00;1.00;;;;;;5046420;28;20442;-50
2022/03/03 00:07:12;;;;;;;8.00;5.68;;;3.00;1.00;;;;;;5053619;28;20483;-48
2022/03/03 00:09:40;;;;;;;7.10;5.78;;;2.90;1.00;;;;;;5054417;28;20428;-51
2022/03/03 00:12:08;;;;;;;7.57;6.17;;;2.90;1.00;;;;;;5054054;28;20482;-49
2022/03/03 00:14:36;;;;;;;9.20;6.30;;;2.90;1.00;;;;;;5040910;28;20825;-50
2022/03/03 00:17:03;;;;;;;8.20;6.20;;;3.00;1.00;;;;;;5034130;28;20426;-55
2022/03/03 00:19:30;;;;;;;7.60;5.97;;;3.00;1.00;;;;;;5034987;28;20431;-49
2022/03/03 00:21:57;;;;;;;9.10;5.65;;;3.00;1.00;;;;;;5039231;28;20957;-54
2022/03/03 00:24:24;;;;;;;8.43;5.70;;;3.10;1.00;;;;;;5027651;28;20573;-54
2022/03/03 00:26:52;;;;;;;8.73;6.22;;;3.10;1.00;;;;;;5035095;28;20419;-51
2022/03/03 00:29:19;;;;;;;9.35;5.72;;;2.90;1.00;;;;;;5039548;28;20852;-52
2022/03/03 00:31:46;;;;;;;6.45;5.30;;;2.80;88.20;;;;;;5051980;28;20448;-52
2022/03/03 00:34:14;;;;;;;7.13;5.10;;;2.90;1.00;;;;;;5041541;28;20431;-54
2022/03/03 00:36:41;;;;;;;9.40;6.03;;;2.90;1.00;;;;;;5035030;28;20720;-55
2022/03/03 00:39:08;;;;;;;8.60;5.70;;;3.00;1.00;;;;;;5026859;28;20437;-55
2022/03/03 00:41:35;;;;;;;8.07;5.28;;;3.00;1.00;;;;;;5044208;28;20464;-55
2022/03/03 00:44:05;;;;;;;9.00;5.28;;;3.00;1.00;;;;;;5034222;28;20868;-53
2022/03/03 00:46:33;;;;;;;5.32;4.70;;;2.90;1.00;;;;;;5014815;28;20452;-51
2022/03/03 00:49:00;;;;;;;9.55;5.50;;;3.00;1.00;;;;;;5013405;28;20500;-55
2022/03/03 00:51:27;;;;;;;8.48;5.70;;;3.00;99.90;;;;;;5012442;28;20439;-55
2022/03/03 00:53:54;;;;;;;11.15;5.95;;;3.00;99.90;;;;;;5012249;28;20482;-53
2022/03/03 00:56:21;;;;;;;8.35;6.10;;;2.90;99.90;;;;;;5012312;28;20424;-55
2022/03/03 00:58:48;;;;;;;7.83;6.27;;;2.80;1.00;;;;;;5015851;28;21000;-55
2022/03/03 01:01:17;;;;;;;7.37;5.57;;;2.90;1.00;;;;;;5018133;28;20424;-50
2022/03/03 01:03:44;;;;;;;7.10;4.90;;;2.90;1.00;;;;;;5012367;28;20436;-56
2022/03/03 01:06:13;;;;;;;7.68;5.85;;;2.80;1.00;;;;;;5013467;28;20502;-53
2022/03/03 01:08:40;;;;;;;8.83;5.60;;;2.90;1.00;;;;;;5023225;28;20439;-55
2022/03/03 01:11:08;;;;;;;8.27;5.20;;;2.90;1.00;;;;;;5033180;28;20427;-50
2022/03/03 01:13:35;;;;;;;8.07;4.88;;;2.90;99.90;;;;;;5033952;28;20442;-55
2022/03/03 01:16:02;;;;;;;7.63;5.28;;;2.90;99.90;;;;;;5034033;28;20423;-52
2022/03/03 01:18:31;;;;;;;7.93;5.60;;;2.90;99.90;;;;;;5029358;28;20470;-53
2022/03/03 01:20:58;;;;;;;9.95;5.90;;;2.80;99.90;;;;;;5033470;28;20415;-51
2022/03/03 01:23:24;;;;;;;8.02;5.40;;;2.80;99.90;;;;;;5032322;28;20434;-53
2022/03/03 01:25:52;;;;;;;8.05;5.93;;;2.80;1.00;;;;;;5029932;28;20443;-52
2022/03/03 01:28:19;;;;;;;9.95;6.10;;;2.70;1.00;;;;;;5022141;28;20534;-54
2022/03/03 01:30:46;;;;;;;6.97;5.13;;;2.80;1.00;;;;;;5016614;28;20490;-54
2022/03/03 01:33:13;;;;;;;7.43;5.78;;;2.90;99.90;;;;;;5016819;28;20424;-54
2022/03/03 01:35:41;;;;;;;9.68;5.25;;;2.90;99.90;;;;;;5020199;28;20558;-52
2022/03/03 01:38:09;;;;;;;9.77;5.82;;;2.70;99.90;;;;;;5024480;28;20914;-49
2022/03/03 01:40:36;;;;;;;7.10;5.30;;;2.50;1.00;;;;;;5017974;28;20417;-54
2022/03/03 01:43:04;;;;;;;9.02;6.35;;;2.50;1.00;;;;;;5016956;28;20464;-55
2022/03/03 01:45:33;;;;;;;7.40;6.05;;;2.40;1.00;;;;;;5036161;28;20489;-49
2022/03/03 01:48:00;;;;;;;7.72;5.70;;;2.40;1.00;;;;;;5036717;28;20422;-53
2022/03/03 01:50:28;;;;;;;7.60;5.80;;;2.40;1.00;;;;;;5036458;28;20545;-51
2022/03/03 01:52:56;;;;;;;9.18;5.85;;;2.30;1.00;;;;;;5038913;28;20441;-53
2022/03/03 01:55:25;;;;;;;8.20;5.70;;;2.30;1.00;;;;;;5049020;28;20508;-51
2022/03/03 01:57:52;;;;;;;9.07;6.18;;;2.30;1.00;;;;;;5036617;28;20415;-54
2022/03/03 02:00:19;;;;;;;9.77;6.38;;;2.50;1.00;;;;;;5037255;28;20439;-53
2022/03/03 02:02:47;;;;;;;8.10;5.75;;;2.50;1.00;;;;;;5042874;28;20803;-50
2022/03/03 02:05:14;;;;;;;7.83;5.50;;;2.50;1.00;;;;;;5055781;28;20515;-52
2022/03/03 02:07:41;;;;;;;7.90;5.60;;;2.50;1.00;;;;;;5057354;28;20710;-53
2022/03/03 02:10:10;;;;;;;8.40;6.40;;;2.50;1.00;;;;;;5056214;28;20437;-54
2022/03/03 02:12:38;;;;;;;8.23;6.13;;;2.50;1.00;;;;;;5054201;28;20437;-55
2022/03/03 02:15:06;;;;;;;7.68;5.88;;;2.50;1.00;;;;;;5038780;28;20439;-52
2022/03/03 02:17:33;;;;;;;6.65;5.70;;;2.50;1.00;;;;;;5042329;28;20425;-53
2022/03/03 02:20:08;;;;;;;9.98;5.90;;;2.50;1.00;;;;;;5056676;28;20547;-54
2022/03/03 02:22:35;;;;;;;9.82;7.00;;;2.60;1.00;;;;;;5049473;28;20430;-51
2022/03/03 02:25:02;;;;;;;9.60;5.90;;;2.60;1.00;;;;;;5037184;28;20827;-52
2022/03/03 02:27:30;;;;;;;8.68;5.50;;;2.60;1.00;;;;;;5056384;28;20421;-52
2022/03/03 02:29:58;;;;;;;9.70;6.78;;;2.50;1.00;;;;;;5051001;28;20792;-52
2022/03/03 02:32:25;;;;;;;10.50;7.17;;;2.40;1.00;;;;;;5054556;28;20864;-55
2022/03/03 02:34:52;;;;;;;10.77;7.40;;;2.40;1.00;;;;;;5055296;28;20524;-53
2022/03/03 02:37:21;;;;;;;9.60;6.60;;;2.50;1.00;;;;;;5055434;28;20907;-51
2022/03/03 02:39:47;;;;;;;10.32;7.07;;;2.50;1.00;;;;;;5052319;28;20526;-50
2022/03/03 02:42:14;;;;;;;8.52;6.40;;;2.40;1.00;;;;;;5038306;28;20493;-53
2022/03/03 02:44:41;;;;;;;8.90;6.53;;;2.40;1.00;;;;;;5043475;28;20437;-52
2022/03/03 02:47:08;;;;;;;8.25;6.07;;;2.30;1.00;;;;;;5049995;28;20850;-51
2022/03/03 02:49:35;;;;;;;8.25;6.30;;;2.30;1.00;;;;;;5048635;28;20499;-49
2022/03/03 02:52:03;;;;;;;12.10;7.50;;;2.30;1.00;;;;;;5040089;28;20432;-50
2022/03/03 02:54:31;;;;;;;9.32;7.75;;;2.30;1.00;;;;;;5052265;28;20795;-52
2022/03/03 02:59:42;;;;;;;9.70;6.80;;;2.10;1.00;;;;;;5041258;28;20459;-55
2022/03/03 03:02:09;;;;;;;11.52;7.55;;;2.10;99.90;;;;;;5036799;28;20751;-52
2022/03/03 03:04:37;;;;;;;9.07;6.70;;;2.00;99.90;;;;;;5036290;28;20774;-53
2022/03/03 03:07:04;;;;;;;9.32;7.38;;;2.00;99.90;;;;;;5042497;28;20441;-54
2022/03/03 03:09:33;;;;;;;8.90;6.43;;;1.90;1.00;;;;;;5052821;28;20425;-53
2022/03/03 03:12:00;;;;;;;8.50;6.57;;;1.80;1.00;;;;;;5055484;28;20502;-51
2022/03/03 03:14:27;;;;;;;9.75;7.15;;;1.70;60.20;;;;;;5056575;28;20459;-53
2022/03/03 03:16:54;;;;;;;10.07;6.57;;;1.70;99.90;;;;;;5050658;28;20519;-52
2022/03/03 03:19:21;;;;;;;8.53;6.30;;;1.60;99.90;;;;;;5029011;28;20447;-54
2022/03/03 03:21:48;;;;;;;10.65;6.47;;;1.60;99.90;;;;;;5035600;28;20877;-52
2022/03/03 03:24:15;;;;;;;11.48;7.20;;;1.50;99.90;;;;;;5036231;28;20941;-52
2022/03/03 03:26:44;;;;;;;10.05;6.57;;;1.60;99.90;;;;;;5048955;28;20425;-51
2022/03/03 03:29:11;;;;;;;8.70;6.25;;;1.60;99.90;;;;;;5026939;28;20491;-54
2022/03/03 03:31:38;;;;;;;9.43;6.65;;;1.50;99.90;;;;;;5036413;28;20431;-53
2022/03/03 03:34:05;;;;;;;9.50;6.60;;;1.50;1.00;;;;;;5039558;28;20800;-54
2022/03/03 03:36:32;;;;;;;9.32;6.20;;;1.60;1.00;;;;;;5042319;28;20932;-52
2022/03/03 03:38:59;;;;;;;11.73;6.80;;;1.70;1.00;;;;;;5027099;28;20441;-49
2022/03/03 03:41:26;;;;;;;9.10;6.95;;;1.70;89.60;;;;;;5035200;28;20419;-51
2022/03/03 03:43:54;;;;;;;8.80;6.20;;;1.80;1.00;;;;;;5039002;28;20505;-52
2022/03/03 03:46:21;;;;;;;12.52;6.63;;;1.80;1.00;;;;;;5035396;28;20493;-54
2022/03/03 03:48:48;;;;;;;10.10;6.30;;;1.70;99.90;;;;;;5035252;28;20508;-56
2022/03/03 03:51:15;;;;;;;8.93;6.10;;;1.60;99.90;;;;;;5034786;28;20501;-53
2022/03/03 03:53:42;;;;;;;7.47;6.15;;;1.50;92.70;;;;;;5048745;28;20521;-51
2022/03/03 03:56:09;;;;;;;9.30;6.45;;;1.40;99.90;;;;;;5055650;28;20425;-50
2022/03/03 03:58:36;;;;;;;8.93;6.65;;;1.40;1.00;;;;;;5038823;28;20506;-52
2022/03/03 04:01:05;;;;;;;11.25;6.20;;;1.50;1.00;;;;;;5036342;28;20514;-49
2022/03/03 04:03:32;;;;;;;10.48;6.60;;;1.50;1.00;;;;;;5039698;28;20457;-50
2022/03/03 04:05:59;;;;;;;10.27;5.80;;;1.40;1.00;;;;;;5036863;28;20826;-50
2022/03/03 04:08:26;;;;;;;7.65;5.22;;;1.30;98.50;;;;;;5051107;28;20431;-53
2022/03/03 04:10:53;;;;;;;10.63;7.20;;;1.20;99.90;;;;;;5048324;28;20491;-51
2022/03/03 04:13:21;;;;;;;11.07;7.22;;;1.30;1.00;;;;;;5052874;28;20433;-53
2022/03/03 04:15:48;;;;;;;12.00;7.18;;;1.20;1.00;;;;;;5054800;28;20439;-50
2022/03/03 04:18:16;;;;;;;10.70;7.05;;;1.10;1.00;;;;;;5055208;28;20482;-49
2022/03/03 04:20:44;;;;;;;9.38;6.20;;;1.20;99.90;;;;;;5044717;28;20438;-52
2022/03/03 04:23:11;;;;;;;9.77;7.10;;;1.20;1.00;;;;;;5033764;28;20762;-54
2022/03/03 04:25:38;;;;;;;8.45;6.05;;;1.20;99.90;;;;;;5027739;28;21041;-51
2022/03/03 04:28:05;;;;;;;9.10;6.75;;;1.20;99.90;;;;;;5034314;28;20422;-55
2022/03/03 04:30:32;;;;;;;10.52;7.18;;;1.40;1.00;;;;;;5039034;28;20485;-54
2022/03/03 04:32:59;;;;;;;11.52;7.60;;;1.40;99.90;;;;;;5034889;28;20500;-53
2022/03/03 04:35:28;;;;;;;12.45;7.72;;;1.30;99.90;;;;;;5034999;28;20423;-51
2022/03/03 04:37:55;;;;;;;12.25;7.45;;;1.30;1.00;;;;;;5040857;28;20465;-52
2022/03/03 04:40:23;;;;;;;12.07;7.50;;;1.30;1.00;;;;;;5035312;28;20446;-52
2022/03/03 04:42:51;;;;;;;10.40;7.27;;;1.30;1.00;;;;;;5034601;28;20846;-55
2022/03/03 04:45:18;;;;;;;10.70;6.60;;;1.30;1.00;;;;;;5034527;28;20441;-50
2022/03/03 04:47:45;;;;;;;10.57;6.88;;;1.30;1.00;;;;;;5043467;28;20437;-54
2022/03/03 04:50:13;;;;;;;10.80;6.93;;;1.30;99.90;;;;;;5053031;28;20429;-49
2022/03/03 04:52:42;;;;;;;10.60;7.57;;;1.30;1.00;;;;;;5054074;28;20428;-52
2022/03/03 04:55:10;;;;;;;10.93;6.60;;;1.30;1.00;;;;;;5052643;28;20526;-50
2022/03/03 04:57:37;;;;;;;10.20;7.00;;;1.60;99.90;;;;;;5050877;28;20433;-50
2022/03/03 05:00:05;;;;;;;10.55;7.07;;;1.70;99.90;;;;;;5034040;28;20820;-51
2022/03/03 05:02:32;;;;;;;11.05;7.60;;;1.70;1.00;;;;;;5034418;28;20430;-53
2022/03/03 05:04:59;;;;;;;11.48;7.68;;;1.70;1.00;;;;;;5039801;28;20444;-55
2022/03/03 05:07:26;;;;;;;14.63;8.18;;;1.60;1.00;;;;;;5048696;28;20426;-53
2022/03/03 05:09:55;;;;;;;11.55;7.00;;;1.70;1.00;;;;;;5038163;28;20423;-52
2022/03/03 05:12:22;;;;;;;11.20;7.70;;;1.60;16.60;;;;;;5036827;28;20711;-53
2022/03/03 05:14:49;;;;;;;10.43;7.45;;;1.60;99.90;;;;;;5041620;28;20441;-50
2022/03/03 05:17:16;;;;;;;10.83;6.90;;;1.70;99.90;;;;;;5039011;28;20427;-51
2022/03/03 05:19:43;;;;;;;16.05;9.45;;;1.70;99.90;;;;;;5036864;28;20501;-52
2022/03/03 05:22:10;;;;;;;11.68;8.70;;;1.70;1.00;;;;;;5037133;28;20458;-49
2022/03/03 05:24:38;;;;;;;15.30;8.63;;;1.60;99.90;;;;;;5055142;28;20535;-52
2022/03/03 05:27:06;;;;;;;13.13;8.90;;;1.60;99.90;;;;;;5038778;28;20427;-54
2022/03/03 05:29:34;;;;;;;13.63;8.85;;;1.60;99.90;;;;;;5037698;28;20851;-51
2022/03/03 05:32:01;;;;;;;10.60;8.20;;;1.40;99.90;;;;;;5037268;28;20427;-50
2022/03/03 05:34:28;;;;;;;11.52;8.60;;;1.40;99.90;;;;;;5039464;28;20851;-54
2022/03/03 05:36:55;;;;;;;12.77;8.48;;;1.30;61.20;;;;;;5036981;28;20419;-50
2022/03/03 05:39:23;;;;;;;12.90;8.63;;;1.20;1.00;;;;;;5036887;28;20443;-51
2022/03/03 05:41:50;;;;;;;11.75;8.80;;;1.10;1.00;;;;;;5038922;28;20447;-53
2022/03/03 05:44:19;;;;;;;11.88;8.52;;;1.00;99.90;;;;;;5037836;28;20751;-53
2022/03/03 05:46:48;;;;;;;14.32;8.52;;;1.10;1.00;;;;;;5036460;28;20427;-50
2022/03/03 05:49:19;;;;;;;13.52;8.98;;;1.20;1.00;;;;;;5036651;28;20423;-56
2022/03/03 05:51:46;;;;;;;13.00;8.90;;;1.30;99.90;;;;;;5044539;28;20722;-54
2022/03/03 05:54:13;;;;;;;12.47;8.57;;;1.30;1.00;;;;;;5055285;28;20433;-50
2022/03/03 05:56:43;;;;;;;11.57;8.70;;;1.40;1.00;;;;;;5052327;28;20930;-54
2022/03/03 05:59:14;;;;;;;14.48;8.75;;;1.40;99.90;;;;;;5057276;28;20856;-54
2022/03/03 06:01:45;;;;;;;11.02;8.98;;;1.40;99.90;;;;;;5053078;28;20437;-54
2022/03/03 06:04:15;;;;;;;10.43;7.80;;;1.40;99.90;;;;;;5056857;28;20429;-54
2022/03/03 06:06:53;;;;;;;10.30;7.65;;;1.40;99.90;;;;;;5057415;28;20421;-55
2022/03/03 06:09:26;;;;;;;13.10;7.72;;;1.30;99.90;;;;;;5053882;28;20466;-53
2022/03/03 06:12:00;;;;;;;12.45;7.85;;;1.30;99.90;;;;;;5038740;28;20486;-49
2022/03/03 06:14:36;;;;;;;10.95;7.85;;;1.20;99.90;;;;;;5035488;28;20874;-49
2022/03/03 06:17:05;;;;;;;10.88;8.25;;;1.10;99.90;;;;;;5037196;28;20434;-52
2022/03/03 06:19:40;;;;;;;11.70;7.10;;;1.00;1.00;;;;;;5047456;28;20469;-51
2022/03/03 06:22:08;;;;;;;11.83;7.10;;;1.10;1.00;;;;;;5036044;28;20789;-52
2022/03/03 06:24:35;;;;;;;10.52;6.70;;;1.50;99.90;;;;;;5035863;28;20435;-50
2022/03/03 06:27:02;;;;;;;12.73;7.65;;;1.80;99.90;;;;;;5040462;28;20483;-51
2022/03/03 06:29:29;;;;;;;11.50;8.75;;;2.20;99.90;;;;;;5057559;28;20431;-51
2022/03/03 06:31:56;;;;;;;12.32;8.80;;;2.30;1.00;;;;;;5057589;28;20455;-52
2022/03/03 06:34:25;;;;;;;13.55;8.48;;;2.20;1.00;;;;;;5048360;28;20807;-52
2022/03/03 06:36:52;;;;;;;12.90;8.85;;;2.00;1.00;;;;;;5042276;28;20495;-53
2022/03/03 06:39:19;;;;;;;11.27;8.90;;;1.80;1.00;;;;;;5040229;28;20498;-52
2022/03/03 06:41:46;;;;;;;10.27;7.80;;;1.70;99.90;;;;;;5035321;28;20884;-51
2022/03/03 06:44:13;;;;;;;12.10;8.80;;;1.80;1.00;;;;;;5047969;28;20433;-50
2022/03/03 06:46:40;;;;;;;13.25;8.20;;;1.80;99.90;;;;;;5049179;28;20795;-53
2022/03/03 06:49:08;;;;;;;10.60;8.30;;;1.90;99.90;;;;;;5041842;28;20920;-49
2022/03/03 06:51:40;;;;;;;12.13;8.20;;;1.90;1.00;;;;;;5039112;28;20496;-49
2022/03/03 06:54:11;;;;;;;11.10;8.10;;;1.80;1.00;;;;;;5034113;28;20536;-50
2022/03/03 06:56:45;;;;;;;11.98;8.43;;;1.70;1.00;;;;;;5041046;28;20494;-52
2022/03/03 06:59:16;;;;;;;13.45;8.90;;;1.70;99.90;;;;;;5035890;28;20806;-55
2022/03/03 07:01:46;;;;;;;13.88;9.65;;;1.80;99.90;;;;;;5034354;28;20500;-54
2022/03/03 07:04:14;;;;;;;13.52;9.90;;;1.90;99.90;;;;;;5039630;28;20528;-52
2022/03/03 07:06:43;;;;;;;13.95;9.20;;;1.80;99.90;;;;;;5048439;28;20464;-54
2022/03/03 07:09:11;;;;;;;11.23;8.87;;;1.80;1.00;;;;;;5049310;28;20525;-54
2022/03/03 07:11:40;;;;;;;12.20;8.33;;;1.80;1.00;;;;;;5042567;28;20856;-54
2022/03/03 07:14:10;;;;;;;13.48;8.80;;;1.80;1.00;;;;;;5050344;28;20510;-50
2022/03/03 07:16:42;;;;;;;12.47;8.43;;;1.80;1.00;;;;;;5050257;28;20491;-53
2022/03/03 07:19:23;;;;;;;13.50;8.45;;;1.90;1.00;;;;;;5051963;28;20495;-53
2022/03/03 07:22:07;;;;;;;13.00;8.70;;;2.00;1.00;;;;;;5050580;28;20480;-53
2022/03/03 07:24:38;;;;;;;16.40;9.80;;;2.20;99.90;;;;;;5043322;28;20437;-51
2022/03/03 07:27:07;;;;;;;14.77;8.82;;;2.30;99.90;;;;;;5035688;28;20427;-52
2022/03/03 07:29:36;;;;;;;13.90;9.40;;;2.40;99.90;;;;;;5046038;28;20985;-56
2022/03/03 07:32:07;;;;;;;13.55;8.18;;;2.50;1.00;;;;;;5061671;28;20429;-51
2022/03/03 07:34:37;;;;;;;13.30;9.13;;;2.70;1.00;;;;;;5048252;28;20517;-55
2022/03/03 07:37:11;;;;;;;13.02;8.65;;;2.90;99.90;;;;;;5039542;28;20430;-54
2022/03/03 07:39:42;;;;;;;13.88;8.38;;;3.20;99.90;;;;;;5052143;28;21139;-59
2022/03/03 07:42:13;;;;;;;13.80;9.57;;;3.10;99.90;;;;;;5052376;28;20451;-59
2022/03/03 07:44:40;;;;;;;14.43;9.95;;;3.40;99.90;;;;;;5047839;28;20683;-59
2022/03/03 07:47:08;;;;;;;15.45;9.70;;;3.20;99.90;;;;;;5047832;28;20436;-59
2022/03/03 07:49:37;;;;;;;12.60;10.30;;;3.30;99.90;;;;;;5057255;28;20938;-59
2022/03/03 07:52:10;;;;;;;23.83;15.75;;;3.20;99.90;;;;;;5048532;28;20999;-59
2022/03/03 07:54:37;;;;;;;15.48;10.45;;;3.30;99.90;;;;;;5039544;28;20441;-59
2022/03/03 07:57:09;;;;;;;16.30;9.50;;;3.30;99.90;;;;;;5041000;28;20557;-59
2022/03/03 07:59:37;;;;;;;14.60;11.20;;;3.10;99.90;;;;;;5040007;28;20515;-60
2022/03/03 08:02:06;;;;;;;14.82;10.57;;;3.00;99.90;;;;;;5049797;28;20479;-60
2022/03/03 08:04:34;;;;;;;15.23;9.75;;;2.80;99.90;;;;;;5049058;28;20437;-59
2022/03/03 08:07:05;;;;;;;15.30;9.90;;;2.70;99.90;;;;;;5046284;28;21064;-59
2022/03/03 08:09:36;;;;;;;14.35;10.35;;;2.70;99.90;;;;;;5047848;28;20522;-59
2022/03/03 08:12:05;;;;;;;16.35;10.48;;;3.00;99.90;;;;;;5049828;28;20505;-58
2022/03/03 08:14:33;;;;;;;14.57;10.68;;;3.20;99.90;;;;;;5047166;28;20428;-60
2022/03/03 08:17:00;;;;;;;15.20;8.60;;;3.40;99.90;;;;;;5044474;28;20457;-59
2022/03/03 08:19:28;;;;;;;13.50;8.80;;;3.50;99.90;;;;;;5045833;28;20437;-59
2022/03/03 08:21:55;;;;;;;15.35;10.40;;;4.10;99.90;;;;;;5048724;28;20544;-60
2022/03/03 08:24:22;;;;;;;13.82;10.02;;;4.20;1.00;;;;;;5049017;28;20527;-59
2022/03/03 08:26:54;;;;;;;15.50;10.13;;;4.40;1.00;;;;;;5051245;28;20425;-60
2022/03/03 08:29:21;;;;;;;18.48;11.55;;;4.60;1.00;;;;;;5054910;28;20435;-59
2022/03/03 08:31:53;;;;;;;14.70;9.88;;;4.50;1.00;;;;;;5053153;28;20491;-60
2022/03/03 08:34:29;;;;;;;13.05;10.80;;;4.60;1.00;;;;;;5053225;28;20433;-60
2022/03/03 08:37:00;;;;;;;13.98;9.90;;;4.60;1.00;;;;;;5048603;28;20431;-59
2022/03/03 08:39:29;;;;;;;15.27;10.45;;;4.90;1.00;;;;;;5054771;28;20489;-59
2022/03/03 08:41:59;;;;;;;16.67;10.98;;;4.80;1.00;;;;;;5051239;28;20433;-59
2022/03/03 08:44:28;;;;;;;16.05;12.15;;;4.70;1.00;;;;;;5043717;28;20512;-58
2022/03/03 08:46:57;;;;;;;14.63;11.57;;;4.70;1.00;;;;;;5047482;28;20858;-59
2022/03/03 08:49:30;;;;;;;14.23;10.50;;;4.50;1.00;;;;;;5056183;28;20549;-59
2022/03/03 08:51:57;;;;;;;19.20;10.02;;;4.40;1.00;;;;;;5051523;28;20463;-59
2022/03/03 08:54:25;;;;;;;16.33;11.30;;;4.60;1.00;;;;;;5055369;28;20487;-59
2022/03/03 08:56:52;;;;;;;14.90;10.65;;;4.70;1.00;;;;;;5050136;28;20424;-59
2022/03/03 08:59:20;;;;;;;13.20;9.80;;;4.70;1.00;;;;;;5039838;28;20586;-58
2022/03/03 09:01:47;;;;;;;14.90;11.00;;;4.70;1.00;;;;;;5042680;28;20469;-59
2022/03/03 09:04:14;;;;;;;14.10;10.05;;;4.90;1.00;;;;;;5049456;28;20457;-58
2022/03/03 09:06:41;;;;;;;13.98;10.25;;;5.10;1.00;;;;;;5050553;28;20425;-59
2022/03/03 09:09:16;;;;;;;19.77;10.63;;;5.40;1.00;;;;;;5049305;28;20474;-58
2022/03/03 09:12:03;;;;;;;;;;;;;;;;;;;;;
2022/03/03 09:14:32;;;;;;;14.97;10.27;;;5.70;1.00;;;;;;5044098;28;20437;-58
2022/03/03 09:16:59;;;;;;;11.02;8.73;;;6.10;1.00;;;;;;5051429;28;20757;-58
2022/03/03 09:19:27;;;;;;;16.10;10.80;;;6.40;1.00;;;;;;5053524;28;20502;-58
2022/03/03 09:21:54;;;;;;;15.80;10.90;;;6.50;1.00;;;;;;5053585;28;20941;-57
2022/03/03 09:24:21;;;;;;;16.15;10.68;;;6.60;1.00;;;;;;5053281;28;20437;-58
2022/03/03 09:26:48;;;;;;;13.40;9.98;;;6.60;1.00;;;;;;5055739;28;20429;-59
2022/03/03 09:29:17;;;;;;;14.70;10.93;;;6.70;1.00;;;;;;5050669;28;20474;-59
2022/03/03 09:31:46;;;;;;;14.35;11.10;;;6.60;1.00;;;;;;5050229;28;20487;-58
2022/03/03 09:34:14;;;;;;;12.00;9.85;;;6.40;1.00;;;;;;5052047;28;20437;-58
2022/03/03 09:36:41;;;;;;;12.45;10.00;;;6.40;1.00;;;;;;5048767;28;20464;-58
2022/03/03 09:39:08;;;;;;;15.10;10.23;;;6.20;1.00;;;;;;5054414;28;20499;-58
2022/03/03 09:41:35;;;;;;;12.60;9.45;;;6.30;1.00;;;;;;5053923;28;20437;-58
2022/03/03 09:44:02;;;;;;;12.43;9.48;;;6.40;1.00;;;;;;5053389;28;20451;-57
2022/03/03 09:46:29;;;;;;;13.95;10.80;;;6.60;1.00;;;;;;5055353;28;20532;-59
2022/03/03 09:48:57;;;;;;;13.85;10.25;;;6.70;1.00;;;;;;5044813;28;20506;-58
2022/03/03 09:51:24;;;;;;;15.30;12.27;;;6.80;1.00;;;;;;5043021;28;20423;-58
2022/03/03 09:53:51;;;;;;;17.77;11.67;;;6.60;1.00;;;;;;5049817;28;20539;-59
2022/03/03 09:56:18;;;;;;;20.75;14.52;;;6.70;1.00;;;;;;5046496;28;20439;-59
2022/03/03 09:58:45;;;;;;;14.45;11.35;;;6.80;1.00;;;;;;5048768;28;20437;-58
2022/03/03 10:01:13;;;;;;;15.85;10.30;;;7.00;1.00;;;;;;5050936;28;20433;-59
2022/03/03 10:03:41;;;;;;;13.40;8.95;;;7.20;1.00;;;;;;5050904;28;20429;-59
2022/03/03 10:06:13;;;;;;;14.88;11.20;;;7.40;1.00;;;;;;5042938;28;20500;-59
2022/03/03 10:08:40;;;;;;;12.50;9.93;;;7.40;1.00;;;;;;5051311;28;20517;-59
2022/03/03 10:11:09;;;;;;;17.65;10.20;;;7.50;1.00;;;;;;5041715;28;20418;-60
2022/03/03 10:13:47;;;;;;;13.40;9.88;;;7.30;1.00;;;;;;5046607;28;20489;-63
2022/03/03 10:16:20;;;;;;;13.98;9.85;;;7.30;1.00;;;;;;5050795;28;20421;-60
2022/03/03 10:18:53;;;;;;;14.45;10.60;;;7.40;1.00;;;;;;5050960;28;20441;-60
2022/03/03 10:21:26;;;;;;;13.00;8.98;;;7.60;1.00;;;;;;5051672;28;20468;-59
2022/03/03 10:23:53;;;;;;;13.98;9.57;;;7.90;1.00;;;;;;5050288;28;20880;-60
2022/03/03 10:26:20;;;;;;;13.68;10.85;;;8.10;1.00;;;;;;5045329;28;20425;-60
2022/03/03 10:28:49;;;;;;;13.25;10.13;;;8.10;1.00;;;;;;5048175;28;20437;-60
2022/03/03 10:31:20;;;;;;;13.18;9.10;;;8.20;1.00;;;;;;5049382;28;20917;-59
2022/03/03 10:33:50;;;;;;;14.00;11.18;;;8.30;1.00;;;;;;5054348;28;20543;-61
2022/03/03 10:36:23;;;;;;;13.02;11.50;;;8.50;1.00;;;;;;5050764;28;20425;-59
2022/03/03 10:38:55;;;;;;;14.82;10.60;;;8.20;1.00;;;;;;5050113;28;20472;-59
2022/03/03 10:42:00;;;;;;;12.43;9.63;;;8.40;1.00;;;;;;5050714;28;20440;-58
2022/03/03 10:44:32;;;;;;;14.07;9.60;;;8.60;1.00;;;;;;5032533;28;20471;-59
2022/03/03 10:47:06;;;;;;;12.13;9.40;;;8.70;1.00;;;;;;5049577;28;20489;-59
2022/03/03 10:49:34;;;;;;;13.88;9.57;;;9.10;1.00;;;;;;5050666;28;20429;-60
2022/03/03 10:52:14;;;;;;;10.65;9.55;;;9.40;1.00;;;;;;5049113;28;20486;-59
2022/03/03 10:54:55;;;;;;;12.20;9.30;;;9.90;1.00;;;;;;5050009;28;20464;-59
2022/03/03 10:57:47;;;;;;;12.27;8.60;;;10.20;1.00;;;;;;5052192;28;20518;-59
2022/03/03 11:00:18;;;;;;;14.38;9.30;;;10.70;1.00;;;;;;5031985;28;20445;-58
2022/03/03 11:02:47;;;;;;;13.60;10.43;;;10.80;1.00;;;;;;5048601;28;20749;-62
2022/03/03 11:05:16;;;;;;;11.18;9.05;;;10.60;1.00;;;;;;5049017;28;20522;-61
2022/03/03 11:07:46;;;;;;;12.35;8.93;;;10.90;1.00;;;;;;5048711;28;20423;-60
2022/03/03 11:10:15;;;;;;;13.93;9.60;;;11.20;1.00;;;;;;5046624;28;20431;-60
2022/03/03 11:12:43;;;;;;;16.70;12.18;;;11.40;1.00;;;;;;5045181;28;20487;-61
2022/03/03 11:15:11;;;;;;;12.30;9.00;;;11.50;1.00;;;;;;5046941;28;20556;-61
2022/03/03 11:17:39;;;;;;;12.70;9.82;;;11.80;1.00;;;;;;5047445;28;20985;-61
2022/03/03 11:20:08;;;;;;;10.80;9.18;;;11.60;1.00;;;;;;5046066;28;20433;-60
2022/03/03 11:22:35;;;;;;;12.70;9.32;;;11.70;1.00;;;;;;5046163;28;21205;-60
2022/03/03 11:25:09;;;;;;;12.83;8.70;;;12.00;1.00;;;;;;5044696;28;20433;-61
2022/03/03 11:27:37;;;;;;;17.73;12.80;;;11.90;1.00;;;;;;5046704;28;20460;-61
2022/03/03 11:30:15;;;;;;;11.40;8.48;;;12.20;1.00;;;;;;5048523;28;20502;-61
2022/03/03 11:32:42;;;;;;;11.13;8.93;;;12.40;1.00;;;;;;5041060;28;20508;-61
2022/03/03 11:35:12;;;;;;;10.45;9.00;;;12.60;1.00;;;;;;5044684;28;20473;-61
2022/03/03 11:37:42;;;;;;;11.80;9.50;;;12.70;1.00;;;;;;5048858;28;21042;-61
2022/03/03 11:40:12;;;;;;;12.63;9.52;;;12.60;1.00;;;;;;5044513;28;20510;-62
2022/03/03 11:42:46;;;;;;;12.27;9.90;;;12.40;1.00;;;;;;5048321;28;20434;-61
2022/03/03 11:45:30;;;;;;;12.32;9.73;;;12.20;1.00;;;;;;5040420;28;20498;-61
2022/03/03 11:48:10;;;;;;;12.23;9.95;;;12.10;1.00;;;;;;5040491;28;20508;-61
2022/03/03 11:50:37;;;;;;;12.35;9.30;;;12.10;1.00;;;;;;5039540;28;20431;-61
2022/03/03 11:53:23;;;;;;;13.25;9.63;;;12.20;1.00;;;;;;5039550;28;20430;-61
2022/03/03 11:56:00;;;;;;;12.48;9.80;;;12.00;1.00;;;;;;5048162;28;20428;-61
2022/03/03 11:58:32;;;;;;;12.25;9.80;;;11.60;1.00;;;;;;5038019;28;20567;-62
2022/03/03 12:01:11;;;;;;;11.30;9.00;;;11.80;1.00;;;;;;5044461;28;20498;-61
2022/03/03 12:04:04;;;;;;;11.35;8.68;;;12.30;1.00;;;;;;5044755;28;22166;-62
2022/03/03 12:06:43;;;;;;;12.45;8.73;;;12.50;1.00;;;;;;5038042;28;20442;-62
2022/03/03 12:09:22;;;;;;;13.20;9.88;;;12.80;1.00;;;;;;5036575;28;20433;-62
2022/03/03 12:12:05;;;;;;;10.98;8.35;;;12.40;1.00;;;;;;5039523;28;20425;-61
2022/03/03 12:14:34;;;;;;;10.65;9.07;;;12.40;1.00;;;;;;5039078;28;20437;-61
2022/03/03 12:17:36;;;;;;;10.40;7.30;;;12.60;1.00;;;;;;5044504;28;20425;-61
2022/03/03 12:20:35;;;;;;;12.52;8.82;;;12.80;1.00;;;;;;5048066;28;20793;-61
2022/03/03 12:23:11;;;;;;;11.20;9.15;;;13.00;1.00;;;;;;5047880;28;20464;-61
2022/03/03 12:25:58;;;;;;;13.17;9.03;;;13.20;1.00;;;;;;5039519;28;20430;-62
2022/03/03 12:28:28;;;;;;;9.73;7.35;;;12.90;1.00;;;;;;5025283;28;20433;-61
2022/03/03 12:30:56;;;;;;;10.35;7.20;;;12.60;1.00;;;;;;5042197;28;20551;-62
2022/03/03 12:33:24;;;;;;;12.02;9.30;;;13.00;1.00;;;;;;5044114;28;21001;-62
2022/03/03 12:35:53;;;;;;;10.05;7.30;;;12.90;1.00;;;;;;5051668;28;20429;-62
2022/03/03 12:38:20;;;;;;;10.52;7.60;;;13.00;1.00;;;;;;5047879;28;20438;-62
2022/03/03 12:40:48;;;;;;;11.67;8.90;;;13.10;1.00;;;;;;5051180;28;20429;-62
2022/03/03 12:43:17;;;;;;;10.55;7.70;;;12.80;1.00;;;;;;5056551;28;20429;-62
2022/03/03 12:45:46;;;;;;;11.23;8.85;;;12.80;1.00;;;;;;5046397;28;20523;-62
2022/03/03 12:48:13;;;;;;;9.70;7.53;;;12.90;1.00;;;;;;5058844;28;20433;-62
2022/03/03 12:50:41;;;;;;;9.85;8.25;;;12.70;1.00;;;;;;5050068;28;20456;-62
2022/03/03 12:53:11;;;;;;;10.60;8.32;;;13.00;1.00;;;;;;5052182;28;20510;-61
2022/03/03 12:55:43;;;;;;;9.40;7.53;;;13.10;1.00;;;;;;5058476;28;20758;-62
2022/03/03 12:58:13;;;;;;;10.65;8.30;;;13.00;1.00;;;;;;5053497;28;20429;-62
2022/03/03 13:00:43;;;;;;;11.77;8.63;;;12.70;1.00;;;;;;5045419;28;20418;-62
2022/03/03 13:03:12;;;;;;;12.10;9.60;;;12.60;1.00;;;;;;5046710;28;20425;-63
2022/03/03 13:05:42;;;;;;;10.90;9.32;;;12.70;1.00;;;;;;5042724;28;20510;-62
2022/03/03 13:08:20;;;;;;;12.93;9.52;;;12.80;1.00;;;;;;5044329;28;20464;-64
2022/03/03 13:10:47;;;;;;;12.70;10.15;;;12.70;1.00;;;;;;5048254;28;20425;-62